createdAt,value
2022-10-20T00:01:29.285Z,4.77
2022-10-20T00:03:58.886Z,4.64
2022-10-20T00:06:30.285Z,4.70
2022-10-20T00:09:01.621Z,4.77
2022-10-20T00:11:31.666Z,4.73
2022-10-20T00:14:02.369Z,4.72
2022-10-20T00:16:35.584Z,4.49
2022-10-20T00:19:05.924Z,4.58
2022-10-20T00:21:34.786Z,4.56
2022-10-20T00:24:04.637Z,4.73
2022-10-20T00:26:34.248Z,4.77
2022-10-20T00:29:05.475Z,4.31
2022-10-20T00:31:34.442Z,4.65
2022-10-20T00:34:03.439Z,4.73
2022-10-20T00:36:32.862Z,4.63
2022-10-20T00:39:03.415Z,4.68
2022-10-20T00:41:34.418Z,4.63
2022-10-20T00:44:24.831Z,4.59
2022-10-20T00:46:54.643Z,4.34
2022-10-20T00:49:26.394Z,4.17
2022-10-20T00:51:56.080Z,4.31
2022-10-20T00:54:28.443Z,4.30
2022-10-20T00:56:58.629Z,4.38
2022-10-20T00:59:34.769Z,4.16
2022-10-20T01:02:06.562Z,4.25
2022-10-20T01:04:38.322Z,4.31
2022-10-20T01:07:07.491Z,4.34
2022-10-20T01:09:37.006Z,4.27
2022-10-20T01:12:18.957Z,3.96
2022-10-20T01:15:01.203Z,4.28
2022-10-20T01:17:46.993Z,4.03
2022-10-20T01:20:21.905Z,4.26
2022-10-20T01:23:29.451Z,4.28
2022-10-20T01:26:25.693Z,4.26
2022-10-20T01:29:01.324Z,4.17
2022-10-20T01:31:45.664Z,4.16
2022-10-20T01:34:20.922Z,4.23
2022-10-20T01:37:34.054Z,4.16
2022-10-20T01:40:30.062Z,3.91
2022-10-20T01:43:03.186Z,4.13
2022-10-20T01:45:36.187Z,3.86
2022-10-20T01:48:08.749Z,4.08
2022-10-20T01:50:39.790Z,4.14
2022-10-20T01:53:09.307Z,4.23
2022-10-20T01:55:39.190Z,4.18
2022-10-20T01:58:44.453Z,4.28
2022-10-20T02:01:26.686Z,4.16
2022-10-20T02:03:59.317Z,4.17
2022-10-20T02:06:52.173Z,4.25
2022-10-20T02:09:46.775Z,4.15
2022-10-20T02:12:26.899Z,4.19
2022-10-20T02:14:57.557Z,4.28
2022-10-20T02:17:26.757Z,4.14
2022-10-20T02:19:56.716Z,4.40
2022-10-20T02:22:26.938Z,4.38
2022-10-20T02:24:56.142Z,4.56
2022-10-20T02:27:37.340Z,4.64
2022-10-20T02:30:11.214Z,4.77
2022-10-20T02:32:42.831Z,4.73
2022-10-20T02:35:15.358Z,5.04
2022-10-20T02:37:44.394Z,4.90
2022-10-20T02:40:14.430Z,5.62
2022-10-20T02:42:44.436Z,6.57
2022-10-20T02:45:13.924Z,6.71
2022-10-20T02:47:43.041Z,6.60
2022-10-20T02:50:12.339Z,6.58
2022-10-20T02:52:41.815Z,6.58
2022-10-20T02:55:12.646Z,6.59
2022-10-20T02:57:41.981Z,6.82
2022-10-20T03:00:11.731Z,7.65
2022-10-20T03:02:40.736Z,8.43
2022-10-20T03:05:28.483Z,8.22
2022-10-20T03:07:57.709Z,8.66
2022-10-20T03:10:26.480Z,9.44
2022-10-20T03:12:55.840Z,9.55
2022-10-20T03:15:24.529Z,10.39
2022-10-20T03:17:53.521Z,10.39
2022-10-20T03:20:22.586Z,10.43
2022-10-20T03:22:51.471Z,10.83
2022-10-20T03:25:20.243Z,10.78
2022-10-20T03:27:53.786Z,10.98
2022-10-20T03:30:22.709Z,11.14
2022-10-20T03:32:51.412Z,10.57
2022-10-20T03:35:20.892Z,10.86
2022-10-20T03:37:49.733Z,10.68
2022-10-20T03:40:18.892Z,11.01
2022-10-20T03:42:47.853Z,11.12
2022-10-20T03:45:18.706Z,10.56
2022-10-20T03:47:47.631Z,10.44
2022-10-20T03:50:16.516Z,10.76
2022-10-20T03:52:45.653Z,10.98
2022-10-20T03:55:14.607Z,11.29
2022-10-20T03:57:43.694Z,11.14
2022-10-20T04:00:13.303Z,11.44
2022-10-20T04:02:48.326Z,11.37
2022-10-20T04:05:21.862Z,11.36
2022-10-20T04:07:51.057Z,11.22
2022-10-20T04:10:20.523Z,10.71
2022-10-20T04:12:49.366Z,10.95
2022-10-20T04:15:19.733Z,11.04
2022-10-20T04:17:48.977Z,11.07
2022-10-20T04:20:17.964Z,10.97
2022-10-20T04:22:47.275Z,10.82
2022-10-20T04:25:16.083Z,11.28
2022-10-20T04:27:45.250Z,11.14
2022-10-20T04:30:14.961Z,11.43
2022-10-20T04:32:44.252Z,11.42
2022-10-20T04:35:12.972Z,11.63
2022-10-20T04:37:42.149Z,11.92
2022-10-20T04:40:11.375Z,12.01
2022-10-20T04:42:40.303Z,11.88
2022-10-20T04:45:09.708Z,11.35
2022-10-20T04:47:38.960Z,11.86
2022-10-20T04:50:08.597Z,11.88
2022-10-20T04:52:37.954Z,11.48
2022-10-20T04:55:07.006Z,11.70
2022-10-20T04:57:36.329Z,11.79
2022-10-20T05:00:05.874Z,11.74
2022-10-20T05:02:34.745Z,11.65
2022-10-20T05:05:04.077Z,11.73
2022-10-20T05:07:33.741Z,11.71
2022-10-20T05:10:03.790Z,11.90
2022-10-20T05:12:32.981Z,12.09
2022-10-20T05:15:02.245Z,11.94
2022-10-20T05:17:32.048Z,11.90
2022-10-20T05:20:01.684Z,11.53
2022-10-20T05:22:32.574Z,11.81
2022-10-20T05:25:24.484Z,11.77
2022-10-20T05:27:51.091Z,11.48
2022-10-20T05:30:19.995Z,11.34
2022-10-20T05:32:49.009Z,11.27
2022-10-20T05:35:17.838Z,11.29
2022-10-20T05:37:46.802Z,10.83
2022-10-20T05:40:15.990Z,10.87
2022-10-20T05:42:45.284Z,10.96
2022-10-20T05:45:16.420Z,11.21
2022-10-20T05:47:45.626Z,11.35
2022-10-20T05:50:14.537Z,11.43
2022-10-20T05:52:44.022Z,11.95
2022-10-20T05:55:17.021Z,12.39
2022-10-20T05:58:03.640Z,11.93
2022-10-20T06:00:42.655Z,11.83
2022-10-20T06:03:16.150Z,11.51
2022-10-20T06:05:47.950Z,11.53
2022-10-20T06:08:22.368Z,11.37
2022-10-20T06:10:51.399Z,11.32
2022-10-20T06:13:22.266Z,11.09
2022-10-20T06:15:51.537Z,11.21
2022-10-20T06:18:20.422Z,11.21
2022-10-20T06:20:49.281Z,11.05
2022-10-20T06:23:18.057Z,11.21
2022-10-20T06:25:46.971Z,11.33
2022-10-20T06:28:15.611Z,11.57
2022-10-20T06:30:44.720Z,12.36
2022-10-20T06:33:19.022Z,14.69
2022-10-20T06:35:48.232Z,14.97
2022-10-20T06:38:17.059Z,15.26
2022-10-20T06:40:51.541Z,14.63
2022-10-20T06:43:24.186Z,15.40
2022-10-20T06:46:07.083Z,17.08
2022-10-20T06:48:40.382Z,17.89
2022-10-20T06:51:17.381Z,18.33
2022-10-20T06:53:47.388Z,18.49
2022-10-20T06:56:22.064Z,18.71
2022-10-20T06:58:56.177Z,19.28
2022-10-20T07:01:28.694Z,19.27
2022-10-20T07:04:00.533Z,19.70
2022-10-20T07:06:32.382Z,19.74
2022-10-20T07:09:11.436Z,19.95
2022-10-20T07:11:40.532Z,20.03
2022-10-20T07:14:09.442Z,20.33
2022-10-20T07:16:39.140Z,20.63
2022-10-20T07:19:18.026Z,20.58
2022-10-20T07:21:48.489Z,21.02
2022-10-20T07:24:20.445Z,21.11
2022-10-20T07:26:51.840Z,20.98
2022-10-20T07:29:21.486Z,20.91
2022-10-20T07:31:51.129Z,21.62
2022-10-20T07:34:27.611Z,21.49
2022-10-20T07:36:58.163Z,21.40
2022-10-20T07:39:28.349Z,21.19
2022-10-20T07:41:57.186Z,21.25
2022-10-20T07:44:30.578Z,21.20
2022-10-20T07:46:59.562Z,21.26
2022-10-20T07:49:44.584Z,21.62
2022-10-20T07:52:14.745Z,21.22
2022-10-20T07:54:44.176Z,21.42
2022-10-20T07:57:13.330Z,21.18
2022-10-20T07:59:42.179Z,21.45
2022-10-20T08:02:12.965Z,21.41
2022-10-20T08:04:43.292Z,21.44
2022-10-20T08:07:14.711Z,21.31
2022-10-20T08:12:17.893Z,21.63
2022-10-20T08:14:46.724Z,22.14
2022-10-20T08:17:15.742Z,21.96
2022-10-20T08:19:51.694Z,22.17
2022-10-20T08:22:20.996Z,22.22
2022-10-20T08:24:49.943Z,22.00
2022-10-20T08:27:18.878Z,21.78
2022-10-20T08:30:00.336Z,22.10
2022-10-20T08:32:40.609Z,21.96
2022-10-20T08:35:11.867Z,21.98
2022-10-20T08:37:41.766Z,21.81
2022-10-20T08:40:19.000Z,21.96
2022-10-20T08:42:50.384Z,21.77
2022-10-20T08:45:23.348Z,22.20
2022-10-20T08:47:56.380Z,21.61
2022-10-20T08:50:32.041Z,21.33
2022-10-20T08:53:02.126Z,21.45
2022-10-20T08:55:34.181Z,21.33
2022-10-20T08:58:14.120Z,20.62
2022-10-20T09:00:44.742Z,21.05
2022-10-20T09:03:19.941Z,20.80
2022-10-20T09:05:55.084Z,20.55
2022-10-20T09:08:32.026Z,20.67
2022-10-20T09:11:10.513Z,20.37
2022-10-20T09:13:39.583Z,19.83
2022-10-20T09:16:22.244Z,20.07
2022-10-20T09:19:04.079Z,19.53
2022-10-20T09:21:35.167Z,19.47
2022-10-20T09:24:07.441Z,19.11
2022-10-20T09:27:00.582Z,19.33
2022-10-20T09:29:41.238Z,19.15
2022-10-20T09:32:46.154Z,19.24
2022-10-20T09:35:24.269Z,18.87
2022-10-20T09:38:19.065Z,18.99
2022-10-20T09:41:18.078Z,19.11
2022-10-20T09:43:58.348Z,19.34
2022-10-20T09:46:38.151Z,19.24
2022-10-20T09:49:09.179Z,19.78
2022-10-20T09:51:38.309Z,19.50
2022-10-20T09:54:16.359Z,19.37
2022-10-20T09:56:47.823Z,19.28
2022-10-20T09:59:32.179Z,19.71
2022-10-20T10:02:25.144Z,19.91
2022-10-20T10:04:55.434Z,19.70
2022-10-20T10:07:33.097Z,19.64
2022-10-20T10:10:24.739Z,19.72
2022-10-20T10:13:02.356Z,19.22
2022-10-20T10:15:35.779Z,19.46
2022-10-20T10:18:17.287Z,19.46
2022-10-20T10:20:46.502Z,19.40
2022-10-20T10:23:30.546Z,18.99
2022-10-20T10:26:08.079Z,19.23
2022-10-20T10:28:39.692Z,19.11
2022-10-20T10:31:17.990Z,18.87
2022-10-20T10:33:47.726Z,19.06
2022-10-20T10:36:35.703Z,19.08
2022-10-20T10:39:08.498Z,18.95
2022-10-20T10:41:48.350Z,18.98
2022-10-20T10:44:42.900Z,18.88
2022-10-20T10:47:51.069Z,18.73
2022-10-20T10:50:40.826Z,18.49
2022-10-20T10:53:36.694Z,18.12
2022-10-20T10:56:28.496Z,17.74
2022-10-20T10:59:12.956Z,17.82
2022-10-20T11:02:00.574Z,17.26
2022-10-20T11:04:47.721Z,17.28
2022-10-20T11:07:35.587Z,16.73
2022-10-20T11:13:33.017Z,15.84
2022-10-20T11:16:08.578Z,15.16
2022-10-20T11:19:22.639Z,14.26
2022-10-20T11:21:59.702Z,14.00
2022-10-20T11:24:58.419Z,13.44
2022-10-20T11:27:42.740Z,12.86
2022-10-20T11:30:35.291Z,12.61
2022-10-20T11:33:31.135Z,11.97
2022-10-20T11:36:20.420Z,11.33
2022-10-20T11:38:55.857Z,10.95
2022-10-20T11:41:44.533Z,10.94
2022-10-20T11:44:38.522Z,10.90
2022-10-20T11:47:35.862Z,10.81
2022-10-20T11:50:14.591Z,10.59
2022-10-20T11:52:56.485Z,10.35
2022-10-20T11:55:39.371Z,10.05
2022-10-20T11:58:10.833Z,10.11
2022-10-20T12:01:40.138Z,9.91
2022-10-20T12:07:47.165Z,9.77
2022-10-20T12:10:37.621Z,9.72
2022-10-20T12:16:10.791Z,9.11
2022-10-20T12:18:40.379Z,9.06
2022-10-20T12:21:13.061Z,9.10
2022-10-20T12:23:48.047Z,9.08
2022-10-20T12:26:35.113Z,9.06
2022-10-20T12:29:34.134Z,8.89
2022-10-20T12:32:27.381Z,8.71
2022-10-20T12:35:00.215Z,8.71
2022-10-20T12:37:31.146Z,8.69
2022-10-20T12:40:26.709Z,8.62
2022-10-20T12:42:57.406Z,8.59
2022-10-20T12:45:37.038Z,8.54
2022-10-20T12:48:09.948Z,8.09
2022-10-20T12:50:51.223Z,8.24
2022-10-20T12:53:31.141Z,8.22
2022-10-20T12:56:20.569Z,7.84
2022-10-20T12:59:10.739Z,7.86
2022-10-20T13:02:14.108Z,7.70
2022-10-20T13:05:07.271Z,7.46
2022-10-20T13:07:49.644Z,7.40
2022-10-20T13:10:39.463Z,7.36
2022-10-20T13:13:08.489Z,7.37
2022-10-20T13:15:37.237Z,7.26
2022-10-20T13:18:12.563Z,7.15
2022-10-20T13:20:44.628Z,7.16
2022-10-20T13:23:48.841Z,7.02
2022-10-20T13:26:38.429Z,6.99
2022-10-20T13:29:26.014Z,6.79
2022-10-20T13:32:34.902Z,6.83
2022-10-20T13:36:02.842Z,6.70
2022-10-20T13:38:57.783Z,6.63
2022-10-20T13:41:45.736Z,6.55
2022-10-20T13:44:48.845Z,6.42
2022-10-20T13:47:28.510Z,6.46
2022-10-20T13:50:08.093Z,6.26
2022-10-20T13:52:45.153Z,6.23
2022-10-20T13:55:21.843Z,6.29
2022-10-20T13:57:58.050Z,6.00
2022-10-20T14:00:34.171Z,6.18
2022-10-20T14:03:24.185Z,6.02
2022-10-20T14:05:55.635Z,5.89
2022-10-20T14:08:28.571Z,5.93
2022-10-20T14:11:05.470Z,5.94
2022-10-20T14:13:37.180Z,6.05
2022-10-20T14:16:18.409Z,5.95
2022-10-20T14:19:04.103Z,5.85
2022-10-20T14:21:59.625Z,5.85
2022-10-20T14:24:37.470Z,5.77
2022-10-20T14:27:20.031Z,5.69
2022-10-20T14:29:52.338Z,5.74
2022-10-20T14:32:25.717Z,5.52
2022-10-20T14:35:25.884Z,5.66
2022-10-20T14:38:06.229Z,5.55
2022-10-20T14:40:39.068Z,5.59
2022-10-20T14:43:15.816Z,5.54
2022-10-20T14:45:54.987Z,5.46
2022-10-20T14:48:27.562Z,5.36
2022-10-20T14:50:57.158Z,5.36
2022-10-20T14:53:35.012Z,5.34
2022-10-20T14:56:05.186Z,5.05
2022-10-20T14:58:44.193Z,5.17
2022-10-20T15:01:30.619Z,5.30
2022-10-20T15:04:12.789Z,5.27
2022-10-20T15:06:44.733Z,5.25
2022-10-20T15:09:32.617Z,5.10
2022-10-20T15:12:29.011Z,5.13
2022-10-20T15:15:21.523Z,5.02
2022-10-20T15:18:16.261Z,5.06
2022-10-20T15:20:47.326Z,5.06
2022-10-20T15:23:25.088Z,5.03
2022-10-20T15:26:02.322Z,4.85
2022-10-20T15:28:38.851Z,4.93
2022-10-20T15:31:20.992Z,4.40
2022-10-20T15:33:52.029Z,4.79
2022-10-20T15:36:34.409Z,4.29
2022-10-20T15:39:04.979Z,4.35
2022-10-20T15:41:42.031Z,4.71
2022-10-20T15:44:23.099Z,4.68
2022-10-20T15:46:56.332Z,4.76
2022-10-20T15:49:25.539Z,4.63
2022-10-20T15:51:54.669Z,4.49
2022-10-20T15:54:24.385Z,4.52
2022-10-20T15:56:53.610Z,4.55
2022-10-20T15:59:22.683Z,4.47
2022-10-20T16:01:51.404Z,4.45
2022-10-20T16:04:24.289Z,4.50
2022-10-20T16:06:59.062Z,4.45
2022-10-20T16:09:31.204Z,4.30
2022-10-20T16:12:00.262Z,4.36
2022-10-20T16:14:29.260Z,4.38
2022-10-20T16:17:01.630Z,4.27
2022-10-20T16:19:31.210Z,4.19
2022-10-20T16:22:00.122Z,4.23
2022-10-20T16:24:28.995Z,4.30
2022-10-20T16:26:58.378Z,4.14
2022-10-20T16:29:27.509Z,4.15
2022-10-20T16:31:57.933Z,4.05
2022-10-20T16:34:29.389Z,4.22
2022-10-20T16:36:58.417Z,3.94
2022-10-20T16:39:30.083Z,3.90
2022-10-20T16:41:59.084Z,4.15
2022-10-20T16:44:27.884Z,4.28
2022-10-20T16:46:57.086Z,4.20
2022-10-20T16:49:26.909Z,4.24
2022-10-20T16:51:55.985Z,4.30
2022-10-20T16:54:25.057Z,4.29
2022-10-20T16:56:54.049Z,4.12
2022-10-20T16:59:23.148Z,4.62
2022-10-20T17:01:52.386Z,4.71
2022-10-20T17:04:21.557Z,4.47
2022-10-20T17:06:50.462Z,4.65
2022-10-20T17:09:19.408Z,4.68
2022-10-20T17:11:48.325Z,4.77
2022-10-20T17:14:23.467Z,5.05
2022-10-20T17:16:52.491Z,4.95
2022-10-20T17:19:24.695Z,5.03
2022-10-20T17:21:56.127Z,5.03
2022-10-20T17:24:26.108Z,5.03
2022-10-20T17:26:54.894Z,5.13
2022-10-20T17:29:26.206Z,4.97
2022-10-20T17:31:55.593Z,4.90
2022-10-20T17:34:24.690Z,4.92
2022-10-20T17:36:53.949Z,4.76
2022-10-20T17:39:25.335Z,4.73
2022-10-20T17:41:55.047Z,4.68
2022-10-20T17:44:24.098Z,4.42
2022-10-20T17:46:53.302Z,4.55
2022-10-20T17:49:22.224Z,4.47
2022-10-20T17:51:51.701Z,4.49
2022-10-20T17:54:21.462Z,4.49
2022-10-20T17:56:53.299Z,4.52
2022-10-20T17:59:22.959Z,4.56
2022-10-20T18:01:51.926Z,4.37
2022-10-20T18:04:23.757Z,4.40
2022-10-20T18:06:52.989Z,4.38
2022-10-20T18:09:21.862Z,4.29
2022-10-20T18:11:52.708Z,4.28
2022-10-20T18:14:22.120Z,4.39
2022-10-20T18:16:51.104Z,4.30
2022-10-20T18:19:21.228Z,4.51
2022-10-20T18:21:50.333Z,4.44
2022-10-20T18:24:20.328Z,4.76
2022-10-20T18:26:49.386Z,4.51
2022-10-20T18:29:18.595Z,4.73
2022-10-20T18:31:48.541Z,4.61
2022-10-20T18:34:21.631Z,4.62
2022-10-20T18:36:51.881Z,4.99
2022-10-20T18:39:21.017Z,4.92
2022-10-20T18:41:53.125Z,5.39
2022-10-20T18:44:22.345Z,5.19
2022-10-20T18:46:52.344Z,5.13
2022-10-20T18:49:22.405Z,4.94
2022-10-20T18:51:51.991Z,4.88
2022-10-20T18:54:21.237Z,4.90
2022-10-20T18:56:50.350Z,4.70
2022-10-20T18:59:19.253Z,4.84
2022-10-20T19:01:49.301Z,4.77
2022-10-20T19:04:18.338Z,4.87
2022-10-20T19:06:49.103Z,4.89
2022-10-20T19:09:21.336Z,4.71
2022-10-20T19:14:25.056Z,4.15
2022-10-20T19:16:54.309Z,4.29
2022-10-20T19:19:23.756Z,4.25
2022-10-20T19:21:52.718Z,4.19
2022-10-20T19:24:25.076Z,4.19
2022-10-20T19:29:47.893Z,4.38
2022-10-20T19:32:18.397Z,4.52
2022-10-20T19:34:47.329Z,4.42
2022-10-20T19:37:16.045Z,4.15
2022-10-20T19:39:45.231Z,4.27
2022-10-20T19:42:14.724Z,4.56
2022-10-20T19:44:43.907Z,5.11
2022-10-20T19:47:13.709Z,4.94
2022-10-20T19:49:42.607Z,4.75
2022-10-20T19:52:12.620Z,4.82
2022-10-20T19:54:42.245Z,4.62
2022-10-20T19:57:11.036Z,4.54
2022-10-20T19:59:40.145Z,4.29
2022-10-20T20:02:09.286Z,4.34
2022-10-20T20:04:38.407Z,4.42
2022-10-20T20:07:07.307Z,4.39
2022-10-20T20:09:36.516Z,4.25
2022-10-20T20:12:05.357Z,4.21
2022-10-20T20:14:34.350Z,3.93
2022-10-20T20:17:04.310Z,3.93
2022-10-20T20:19:34.196Z,4.45
2022-10-20T20:22:02.981Z,4.45
2022-10-20T20:24:32.375Z,4.83
2022-10-20T20:27:01.317Z,4.68
2022-10-20T20:29:30.496Z,4.42
2022-10-20T20:31:59.254Z,4.40
2022-10-20T20:34:29.098Z,4.15
2022-10-20T20:36:57.848Z,4.13
2022-10-20T20:39:27.013Z,4.03
2022-10-20T20:41:55.797Z,3.96
2022-10-20T20:44:24.811Z,3.98
2022-10-20T20:46:53.716Z,3.97
2022-10-20T20:49:22.821Z,3.84
2022-10-20T20:51:51.576Z,3.85
2022-10-20T20:54:20.565Z,3.91
2022-10-20T20:56:49.283Z,3.57
2022-10-20T20:59:18.256Z,4.08
2022-10-20T21:01:47.084Z,3.53
2022-10-20T21:04:16.839Z,3.90
2022-10-20T21:07:02.423Z,3.90
2022-10-20T21:09:32.108Z,3.83
2022-10-20T21:12:01.266Z,3.95
2022-10-20T21:14:30.499Z,3.77
2022-10-20T21:16:59.410Z,3.82
2022-10-20T21:19:28.428Z,3.53
2022-10-20T21:22:02.568Z,3.75
2022-10-20T21:24:31.541Z,3.80
2022-10-20T21:27:00.257Z,4.02
2022-10-20T21:29:29.202Z,4.12
2022-10-20T21:31:59.119Z,4.40
2022-10-20T21:34:27.992Z,4.52
2022-10-20T21:36:56.884Z,4.63
2022-10-20T21:39:26.009Z,4.50
2022-10-20T21:41:54.744Z,4.71
2022-10-20T21:44:23.802Z,4.69
2022-10-20T21:46:53.498Z,4.69
2022-10-20T21:49:26.995Z,4.56
2022-10-20T21:51:58.059Z,4.66
2022-10-20T21:54:30.074Z,4.85
2022-10-20T21:56:59.268Z,4.57
2022-10-20T21:59:30.694Z,4.79
2022-10-20T22:02:02.053Z,4.76
2022-10-20T22:04:31.869Z,4.64
2022-10-20T22:07:00.623Z,4.73
2022-10-20T22:09:30.052Z,4.71
2022-10-20T22:12:02.286Z,4.79
2022-10-20T22:14:32.253Z,4.68
2022-10-20T22:17:02.035Z,4.43
2022-10-20T22:19:31.269Z,4.30
2022-10-20T22:22:00.397Z,4.09
2022-10-20T22:24:31.757Z,4.09
2022-10-20T22:27:00.777Z,4.17
2022-10-20T22:29:29.785Z,4.17
2022-10-20T22:31:59.341Z,3.95
2022-10-20T22:34:28.133Z,3.96
2022-10-20T22:36:57.246Z,3.98
2022-10-20T22:39:26.011Z,4.16
2022-10-20T22:41:55.157Z,4.21
2022-10-20T22:44:23.849Z,4.24
2022-10-20T22:46:53.001Z,4.08
2022-10-20T22:49:21.699Z,4.19
2022-10-20T22:51:50.579Z,4.26
2022-10-20T22:54:20.340Z,4.60
2022-10-20T22:56:53.555Z,4.73
2022-10-20T22:59:22.821Z,4.53
2022-10-20T23:01:51.827Z,4.37
2022-10-20T23:04:20.770Z,4.32
2022-10-20T23:06:49.623Z,4.13
2022-10-20T23:09:18.750Z,3.86
2022-10-20T23:11:47.467Z,3.78
2022-10-20T23:14:16.482Z,3.81
2022-10-20T23:16:45.193Z,3.93
2022-10-20T23:19:14.421Z,3.67
2022-10-20T23:21:43.373Z,3.70
2022-10-20T23:24:12.260Z,3.52
2022-10-20T23:26:41.236Z,3.48
2022-10-20T23:29:11.310Z,3.38
2022-10-20T23:31:40.139Z,3.36
2022-10-20T23:34:10.101Z,3.25
2022-10-20T23:36:39.273Z,3.25
2022-10-20T23:39:08.161Z,3.30
2022-10-20T23:41:38.007Z,3.42
2022-10-20T23:44:07.392Z,3.37
2022-10-20T23:46:36.594Z,3.47
2022-10-20T23:49:06.373Z,3.51
2022-10-20T23:51:36.034Z,3.52
2022-10-20T23:54:05.084Z,3.41
2022-10-20T23:56:34.508Z,3.32
2022-10-20T23:59:03.532Z,3.60
